createdAt,value
2023-05-02T00:01:46.485Z,2.97
2023-05-02T00:04:14.097Z,2.97
2023-05-02T00:06:42.705Z,2.65
2023-05-02T00:09:10.466Z,2.78
2023-05-02T00:11:37.837Z,2.83
2023-05-02T00:14:06.082Z,3.15
2023-05-02T00:16:33.433Z,3.17
2023-05-02T00:19:00.826Z,3.42
2023-05-02T00:21:31.368Z,3.40
2023-05-02T00:23:58.928Z,3.25
2023-05-02T00:26:27.635Z,3.42
2023-05-02T00:28:55.203Z,2.92
2023-05-02T00:31:22.592Z,3.28
2023-05-02T00:33:50.105Z,3.10
2023-05-02T00:36:18.972Z,3.30
2023-05-02T00:38:46.395Z,3.22
2023-05-02T00:41:14.191Z,2.72
2023-05-02T00:43:41.741Z,3.45
2023-05-02T00:46:12.194Z,3.72
2023-05-02T00:48:40.075Z,3.38
2023-05-02T00:51:08.990Z,2.88
2023-05-02T00:53:36.688Z,4.22
2023-05-02T00:56:04.308Z,3.70
2023-05-02T00:58:32.039Z,3.85
2023-05-02T01:01:12.427Z,4.20
2023-05-02T01:04:04.916Z,4.43
2023-05-02T01:06:56.544Z,4.90
2023-05-02T01:09:47.081Z,4.90
2023-05-02T01:12:40.984Z,5.03
2023-05-02T01:15:12.343Z,4.88
2023-05-02T01:17:41.063Z,6.03
2023-05-02T01:20:13.873Z,6.03
2023-05-02T01:22:41.751Z,5.93
2023-05-02T01:25:19.722Z,5.10
2023-05-02T01:28:18.548Z,5.45
2023-05-02T01:30:47.082Z,5.50
2023-05-02T01:33:17.566Z,5.40
2023-05-02T01:35:50.179Z,4.65
2023-05-02T01:38:18.933Z,5.85
2023-05-02T01:40:47.956Z,5.75
2023-05-02T01:43:16.729Z,5.13
2023-05-02T01:45:45.722Z,4.97
2023-05-02T01:48:15.662Z,6.07
2023-05-02T01:50:45.657Z,5.30
2023-05-02T01:53:14.620Z,5.20
2023-05-02T01:55:45.546Z,5.47
2023-05-02T01:58:14.866Z,5.93
2023-05-02T02:00:45.593Z,5.63
2023-05-02T02:03:15.189Z,6.00
2023-05-02T02:06:04.258Z,6.47
2023-05-02T02:08:31.969Z,5.60
2023-05-02T02:11:17.271Z,6.00
2023-05-02T02:13:54.145Z,6.22
2023-05-02T02:17:01.421Z,5.72
2023-05-02T02:19:33.965Z,6.17
2023-05-02T02:22:04.589Z,6.80
2023-05-02T02:24:33.857Z,6.45
2023-05-02T02:27:04.149Z,6.75
2023-05-02T02:29:49.206Z,5.95
2023-05-02T02:32:29.711Z,7.38
2023-05-02T02:34:57.276Z,5.93
2023-05-02T02:37:46.835Z,5.40
2023-05-02T02:41:00.878Z,6.53
2023-05-02T02:43:53.698Z,5.60
2023-05-02T02:47:26.859Z,6.63
2023-05-02T02:53:27.878Z,6.25
2023-05-02T02:56:05.470Z,6.60
2023-05-02T02:59:03.112Z,6.93
2023-05-02T03:01:34.813Z,7.07
2023-05-02T03:04:19.517Z,6.85
2023-05-02T03:06:47.490Z,7.20
2023-05-02T03:09:20.209Z,7.50
2023-05-02T03:11:49.750Z,7.20
2023-05-02T03:14:17.517Z,8.52
2023-05-02T03:16:48.261Z,7.28
2023-05-02T03:19:16.374Z,6.63
2023-05-02T03:21:46.029Z,6.72
2023-05-02T03:24:19.480Z,7.13
2023-05-02T03:26:48.158Z,6.78
2023-05-02T03:29:26.020Z,6.10
2023-05-02T03:31:54.183Z,6.15
2023-05-02T03:34:23.682Z,7.60
2023-05-02T03:36:53.040Z,6.80
2023-05-02T03:39:58.903Z,7.90
2023-05-02T03:43:00.257Z,7.00
2023-05-02T03:45:33.554Z,7.13
2023-05-02T03:48:04.639Z,6.55
2023-05-02T03:50:53.222Z,7.50
2023-05-02T03:53:27.014Z,6.38
2023-05-02T03:55:59.160Z,8.00
2023-05-02T03:58:37.736Z,7.35
2023-05-02T04:01:15.364Z,8.50
2023-05-02T04:03:45.286Z,7.78
2023-05-02T04:06:18.586Z,8.27
2023-05-02T04:08:51.761Z,8.70
2023-05-02T04:11:20.145Z,9.55
2023-05-02T04:13:47.929Z,6.72
2023-05-02T04:16:15.841Z,6.53
2023-05-02T04:18:43.260Z,5.75
2023-05-02T04:21:10.861Z,5.38
2023-05-02T04:23:39.448Z,6.10
2023-05-02T04:26:07.623Z,5.70
2023-05-02T04:28:42.836Z,4.97
2023-05-02T04:31:11.889Z,5.50
2023-05-02T04:33:39.411Z,6.30
2023-05-02T04:36:07.297Z,5.80
2023-05-02T04:38:35.655Z,5.28
2023-05-02T04:41:08.957Z,6.55
2023-05-02T04:43:44.482Z,6.80
2023-05-02T04:46:13.812Z,5.05
2023-05-02T04:48:42.249Z,5.82
2023-05-02T04:51:10.912Z,5.68
2023-05-02T04:53:38.426Z,6.45
2023-05-02T04:56:06.820Z,7.05
2023-05-02T04:58:36.924Z,6.45
2023-05-02T05:01:08.471Z,6.00
2023-05-02T05:03:36.033Z,5.15
2023-05-02T05:06:03.792Z,5.20
2023-05-02T05:08:32.012Z,5.10
2023-05-02T05:10:59.909Z,5.05
2023-05-02T05:13:29.452Z,4.47
2023-05-02T05:15:56.949Z,3.83
2023-05-02T05:18:28.852Z,4.18
2023-05-02T05:20:56.338Z,5.28
2023-05-02T05:23:23.748Z,3.55
2023-05-02T05:25:51.427Z,3.38
2023-05-02T05:28:19.111Z,3.78
2023-05-02T05:30:47.200Z,3.95
2023-05-02T05:33:19.217Z,3.97
2023-05-02T05:35:46.905Z,3.95
2023-05-02T05:38:14.294Z,4.32
2023-05-02T05:40:44.593Z,4.65
2023-05-02T05:43:12.550Z,4.43
2023-05-02T05:45:40.418Z,4.05
2023-05-02T05:48:08.132Z,4.50
2023-05-02T05:50:41.963Z,4.68
2023-05-02T05:53:09.293Z,4.97
2023-05-02T05:55:40.257Z,4.03
2023-05-02T05:58:10.880Z,4.93
2023-05-02T06:00:40.277Z,4.40
2023-05-02T06:03:09.810Z,5.10
2023-05-02T06:05:38.136Z,3.90
2023-05-02T06:08:05.500Z,4.85
2023-05-02T06:10:33.251Z,5.22
2023-05-02T06:13:01.185Z,4.90
2023-05-02T06:15:35.172Z,5.75
2023-05-02T06:18:04.836Z,4.35
2023-05-02T06:20:32.613Z,4.43
2023-05-02T06:22:59.942Z,6.07
2023-05-02T06:25:27.346Z,4.90
2023-05-02T06:27:54.643Z,4.43
2023-05-02T06:30:22.005Z,5.43
2023-05-02T06:32:49.307Z,4.15
2023-05-02T06:35:18.113Z,4.90
2023-05-02T06:37:45.503Z,5.55
2023-05-02T06:40:13.852Z,6.13
2023-05-02T06:42:41.153Z,6.53
2023-05-02T06:45:08.718Z,5.18
2023-05-02T06:47:37.148Z,6.13
2023-05-02T06:50:04.753Z,6.05
2023-05-02T06:52:32.119Z,5.20
2023-05-02T06:54:59.406Z,5.80
2023-05-02T06:57:26.963Z,7.55
2023-05-02T06:59:54.771Z,6.03
2023-05-02T07:02:22.971Z,4.90
2023-05-02T07:04:50.541Z,5.30
2023-05-02T07:07:19.159Z,7.13
2023-05-02T07:09:46.531Z,5.68
2023-05-02T07:12:13.854Z,7.07
2023-05-02T07:14:41.263Z,6.80
2023-05-02T07:17:09.845Z,6.30
2023-05-02T07:19:38.134Z,6.68
2023-05-02T07:22:07.129Z,6.65
2023-05-02T07:24:35.027Z,8.18
2023-05-02T07:27:03.323Z,8.35
2023-05-02T07:29:31.183Z,7.95
2023-05-02T07:31:58.779Z,7.45
2023-05-02T07:34:26.162Z,9.10
2023-05-02T07:36:53.654Z,6.78
2023-05-02T07:39:20.940Z,6.47
2023-05-02T07:41:50.929Z,5.00
2023-05-02T07:44:18.257Z,6.80
2023-05-02T07:46:45.821Z,5.50
2023-05-02T07:49:13.741Z,6.68
2023-05-02T07:51:41.102Z,7.90
2023-05-02T07:54:22.675Z,6.93
2023-05-02T07:56:50.650Z,7.53
2023-05-02T07:59:17.773Z,7.82
2023-05-02T08:01:46.484Z,8.48
2023-05-02T08:04:13.976Z,8.75
2023-05-02T08:06:41.656Z,7.90
2023-05-02T08:09:09.524Z,7.30
2023-05-02T08:11:36.886Z,6.93
2023-05-02T08:14:05.096Z,6.13
2023-05-02T08:16:32.467Z,6.68
2023-05-02T08:19:04.752Z,5.95
2023-05-02T08:21:35.992Z,6.53
2023-05-02T08:24:07.018Z,5.40
2023-05-02T08:26:34.686Z,6.70
2023-05-02T08:33:08.159Z,6.93
2023-05-02T08:35:38.582Z,6.70
2023-05-02T08:38:19.098Z,6.38
2023-05-02T08:40:47.042Z,3.75
2023-05-02T08:43:20.219Z,3.47
2023-05-02T08:46:13.084Z,4.22
2023-05-02T08:48:43.673Z,3.30
2023-05-02T08:51:16.486Z,4.07
2023-05-02T08:53:44.725Z,2.97
2023-05-02T08:56:13.748Z,2.75
2023-05-02T08:58:42.150Z,4.45
2023-05-02T09:01:18.798Z,3.55
2023-05-02T09:03:53.077Z,2.90
2023-05-02T09:06:24.746Z,2.95
2023-05-02T09:08:53.226Z,2.20
2023-05-02T09:11:30.406Z,2.67
2023-05-02T09:16:42.846Z,2.38
2023-05-02T09:19:32.564Z,2.13
2023-05-02T09:22:07.503Z,3.33
2023-05-02T09:24:35.413Z,3.50
2023-05-02T09:27:07.250Z,2.50
2023-05-02T09:29:39.078Z,2.38
2023-05-02T09:32:10.348Z,1.98
2023-05-02T09:34:39.516Z,3.25
2023-05-02T09:37:07.105Z,2.40
2023-05-02T09:39:34.712Z,2.45
2023-05-02T09:42:03.625Z,2.33
2023-05-02T09:51:17.784Z,2.08
2023-05-02T09:53:46.193Z,2.28
2023-05-02T09:56:16.688Z,2.40
2023-05-02T09:58:44.714Z,3.22
2023-05-02T10:01:17.259Z,2.58
2023-05-02T10:03:48.630Z,1.60
2023-05-02T10:06:19.542Z,2.17
2023-05-02T10:08:48.068Z,2.20
2023-05-02T10:11:15.872Z,2.20
2023-05-02T10:13:44.245Z,2.50
2023-05-02T10:16:13.495Z,2.70
2023-05-02T10:18:58.763Z,1.85
2023-05-02T10:21:27.871Z,2.60
2023-05-02T10:23:56.163Z,2.75
2023-05-02T10:26:24.018Z,2.55
2023-05-02T10:28:51.543Z,2.40
2023-05-02T10:31:19.367Z,2.33
2023-05-02T10:33:50.972Z,2.80
2023-05-02T10:36:24.037Z,3.20
2023-05-02T10:38:52.465Z,2.35
2023-05-02T10:41:26.967Z,3.10
2023-05-02T10:43:54.863Z,2.72
2023-05-02T10:46:42.011Z,2.50
2023-05-02T10:49:11.794Z,2.10
2023-05-02T10:51:43.558Z,2.17
2023-05-02T10:54:19.993Z,5.55
2023-05-02T10:57:05.779Z,2.40
2023-05-02T10:59:37.668Z,2.80
2023-05-02T11:02:28.152Z,2.10
2023-05-02T11:05:06.453Z,2.58
2023-05-02T11:07:36.220Z,2.13
2023-05-02T11:10:18.460Z,3.28
2023-05-02T11:12:47.921Z,2.10
2023-05-02T11:15:36.411Z,2.05
2023-05-02T11:18:07.672Z,2.75
2023-05-02T11:20:36.355Z,2.50
2023-05-02T11:23:21.983Z,2.45
2023-05-02T11:25:51.387Z,2.58
2023-05-02T11:28:37.213Z,2.22
2023-05-02T11:31:10.001Z,2.75
2023-05-02T11:33:37.496Z,2.83
2023-05-02T11:36:05.670Z,2.22
2023-05-02T11:38:38.387Z,2.65
2023-05-02T11:41:05.888Z,2.78
2023-05-02T11:43:33.303Z,2.70
2023-05-02T11:46:02.469Z,1.88
2023-05-02T11:48:32.641Z,2.53
2023-05-02T11:51:06.410Z,2.35
2023-05-02T11:53:40.712Z,2.58
2023-05-02T11:56:09.131Z,2.75
2023-05-02T11:58:36.707Z,2.17
2023-05-02T12:01:17.520Z,2.83
2023-05-02T12:03:45.474Z,2.63
2023-05-02T12:06:16.147Z,2.47
2023-05-02T12:08:47.668Z,2.67
2023-05-02T12:11:16.357Z,2.42
2023-05-02T12:13:48.381Z,2.25
2023-05-02T12:16:17.458Z,3.10
2023-05-02T12:18:46.569Z,2.80
2023-05-02T12:21:14.523Z,2.92
2023-05-02T12:23:42.467Z,2.47
2023-05-02T12:26:25.150Z,2.55
2023-05-02T12:28:54.821Z,2.35
2023-05-02T12:31:23.681Z,2.40
2023-05-02T12:33:52.662Z,2.20
2023-05-02T12:36:20.592Z,2.45
2023-05-02T12:38:57.268Z,2.15
2023-05-02T12:41:39.001Z,2.25
2023-05-02T12:44:07.804Z,2.63
2023-05-02T12:46:36.651Z,2.35
2023-05-02T12:49:06.321Z,2.38
2023-05-02T12:51:35.452Z,2.70
2023-05-02T12:54:03.991Z,3.03
2023-05-02T12:56:39.541Z,2.60
2023-05-02T12:59:08.038Z,1.88
2023-05-02T13:01:36.015Z,2.50
2023-05-02T13:04:04.198Z,1.80
2023-05-02T13:06:32.205Z,2.60
2023-05-02T13:09:00.121Z,2.65
2023-05-02T13:11:28.269Z,2.38
2023-05-02T13:13:56.967Z,2.47
2023-05-02T13:16:24.465Z,4.03
2023-05-02T13:18:52.009Z,2.83
2023-05-02T13:21:19.541Z,2.08
2023-05-02T13:23:52.088Z,2.78
2023-05-02T13:26:19.534Z,1.95
2023-05-02T13:28:46.875Z,3.25
2023-05-02T13:31:15.367Z,3.50
2023-05-02T13:33:43.150Z,2.72
2023-05-02T13:36:10.511Z,3.72
2023-05-02T13:38:38.178Z,2.80
2023-05-02T13:41:05.630Z,3.42
2023-05-02T13:43:32.957Z,2.95
2023-05-02T13:46:00.759Z,2.60
2023-05-02T13:48:34.572Z,2.28
2023-05-02T13:51:02.016Z,2.97
2023-05-02T13:53:30.798Z,2.72
2023-05-02T13:55:59.609Z,2.63
2023-05-02T13:58:27.576Z,2.83
2023-05-02T14:00:57.891Z,3.45
2023-05-02T14:03:25.604Z,4.10
2023-05-02T14:05:53.080Z,3.40
2023-05-02T14:08:20.803Z,2.58
2023-05-02T14:10:48.351Z,3.08
2023-05-02T14:13:15.790Z,2.78
2023-05-02T14:15:43.176Z,2.72
2023-05-02T14:18:10.730Z,2.40
2023-05-02T14:20:39.374Z,3.38
2023-05-02T14:23:08.132Z,1.88
2023-05-02T14:25:37.089Z,2.70
2023-05-02T14:28:05.996Z,2.00
2023-05-02T14:30:33.700Z,2.33
2023-05-02T14:33:01.352Z,2.50
2023-05-02T14:35:28.917Z,3.08
2023-05-02T14:37:56.436Z,2.67
2023-05-02T14:40:24.042Z,2.47
2023-05-02T14:42:51.980Z,2.65
2023-05-02T14:45:25.463Z,3.45
2023-05-02T14:47:52.887Z,2.80
2023-05-02T14:50:20.485Z,2.45
2023-05-02T14:52:47.857Z,2.88
2023-05-02T14:55:15.928Z,2.70
2023-05-02T14:57:43.253Z,2.80
2023-05-02T15:00:11.355Z,2.88
2023-05-02T15:02:39.604Z,2.88
2023-05-02T15:05:12.210Z,2.22
2023-05-02T15:07:39.883Z,2.53
2023-05-02T15:10:08.049Z,5.90
2023-05-02T15:12:36.037Z,2.95
2023-05-02T15:15:03.599Z,2.80
2023-05-02T15:17:33.779Z,2.88
2023-05-02T15:20:02.210Z,3.05
2023-05-02T15:22:31.209Z,3.40
2023-05-02T15:25:03.073Z,3.03
2023-05-02T15:27:32.006Z,3.17
2023-05-02T15:30:00.013Z,2.13
2023-05-02T15:32:28.600Z,2.30
2023-05-02T15:34:56.098Z,2.67
2023-05-02T15:37:23.411Z,2.90
2023-05-02T15:39:51.888Z,2.63
2023-05-02T15:42:19.659Z,2.58
2023-05-02T15:44:47.184Z,2.47
2023-05-02T15:47:14.614Z,2.20
2023-05-02T15:49:45.942Z,2.75
2023-05-02T15:52:13.252Z,2.42
2023-05-02T15:54:40.684Z,2.83
2023-05-02T15:57:08.107Z,2.90
2023-05-02T15:59:35.403Z,2.40
2023-05-02T16:02:04.170Z,2.30
2023-05-02T16:04:34.820Z,2.58
2023-05-02T16:07:02.558Z,2.65
2023-05-02T16:09:31.260Z,3.17
2023-05-02T16:12:01.800Z,2.40
2023-05-02T16:14:29.705Z,3.60
2023-05-02T16:16:59.695Z,3.53
2023-05-02T16:19:30.139Z,2.15
2023-05-02T16:21:57.672Z,2.47
2023-05-02T16:24:25.108Z,2.95
2023-05-02T16:26:52.380Z,2.55
2023-05-02T16:29:19.753Z,2.92
2023-05-02T16:31:47.089Z,2.90
2023-05-02T16:34:14.729Z,1.95
2023-05-02T16:36:42.498Z,2.75
2023-05-02T16:39:10.843Z,2.92
2023-05-02T16:41:39.447Z,3.15
2023-05-02T16:44:06.840Z,1.73
2023-05-02T16:46:34.181Z,2.28
2023-05-02T16:49:01.532Z,1.85
2023-05-02T16:51:31.313Z,2.42
2023-05-02T16:54:01.363Z,4.15
2023-05-02T16:56:29.294Z,2.45
2023-05-02T16:58:57.079Z,1.92
2023-05-02T17:01:25.813Z,2.08
2023-05-02T17:03:53.271Z,2.58
2023-05-02T17:06:20.997Z,2.58
2023-05-02T17:08:48.681Z,1.70
2023-05-02T17:11:17.434Z,1.67
2023-05-02T17:13:47.127Z,2.17
2023-05-02T17:16:14.710Z,1.83
2023-05-02T17:18:42.380Z,1.50
2023-05-02T17:21:10.341Z,1.20
2023-05-02T17:23:38.287Z,1.48
2023-05-02T17:26:14.413Z,1.65
2023-05-02T17:28:43.728Z,1.85
2023-05-02T17:31:11.615Z,1.70
2023-05-02T17:33:39.524Z,1.95
2023-05-02T17:36:07.010Z,1.70
2023-05-02T17:38:35.574Z,1.65
2023-05-02T17:41:03.515Z,1.45
2023-05-02T17:43:32.150Z,1.80
2023-05-02T17:46:00.972Z,2.17
2023-05-02T17:48:28.957Z,1.70
2023-05-02T17:50:56.339Z,2.40
2023-05-02T17:53:27.365Z,1.77
2023-05-02T17:55:56.649Z,1.80
2023-05-02T17:58:24.598Z,2.15
2023-05-02T18:00:52.095Z,2.42
2023-05-02T18:03:19.654Z,2.08
2023-05-02T18:05:47.886Z,2.10
2023-05-02T18:08:15.850Z,1.95
2023-05-02T18:10:43.321Z,2.60
2023-05-02T18:13:11.200Z,3.53
2023-05-02T18:15:38.803Z,2.33
2023-05-02T18:18:06.510Z,5.18
2023-05-02T18:20:43.565Z,2.47
2023-05-02T18:23:12.139Z,2.13
2023-05-02T18:25:39.717Z,1.98
2023-05-02T18:28:07.195Z,1.65
2023-05-02T18:30:38.373Z,1.80
2023-05-02T18:33:07.570Z,2.47
2023-05-02T18:35:35.755Z,2.22
2023-05-02T18:38:06.816Z,1.83
2023-05-02T18:40:38.311Z,3.42
2023-05-02T18:43:06.356Z,2.83
2023-05-02T18:45:36.917Z,2.28
2023-05-02T18:48:04.999Z,2.55
2023-05-02T18:50:34.005Z,2.75
2023-05-02T18:53:01.470Z,3.30
2023-05-02T18:55:33.426Z,4.60
2023-05-02T18:58:13.057Z,3.00
2023-05-02T19:00:44.779Z,2.88
2023-05-02T19:03:12.453Z,2.53
2023-05-02T19:05:42.065Z,2.65
2023-05-02T19:08:10.180Z,3.22
2023-05-02T19:10:37.831Z,4.18
2023-05-02T19:13:05.208Z,2.45
2023-05-02T19:15:37.016Z,3.13
2023-05-02T19:18:04.691Z,3.35
2023-05-02T19:20:32.470Z,2.63
2023-05-02T19:23:18.466Z,3.67
2023-05-02T19:25:57.746Z,3.70
2023-05-02T19:28:28.571Z,6.53
2023-05-02T19:30:56.724Z,2.67
2023-05-02T19:33:24.488Z,4.60
2023-05-02T19:35:54.286Z,4.15
2023-05-02T19:38:22.057Z,3.70
2023-05-02T19:40:49.419Z,4.32
2023-05-02T19:43:16.914Z,3.60
2023-05-02T19:45:44.219Z,3.60
2023-05-02T19:48:12.801Z,3.40
2023-05-02T19:50:40.958Z,4.15
2023-05-02T19:53:08.425Z,4.97
2023-05-02T19:55:35.895Z,5.05
2023-05-02T19:58:04.467Z,5.78
2023-05-02T20:00:32.188Z,4.25
2023-05-02T20:03:03.351Z,4.40
2023-05-02T20:05:31.094Z,4.25
2023-05-02T20:07:59.735Z,4.13
2023-05-02T20:10:28.898Z,4.18
2023-05-02T20:12:56.439Z,4.72
2023-05-02T20:15:24.074Z,3.63
2023-05-02T20:17:51.497Z,3.22
2023-05-02T20:20:19.099Z,3.90
2023-05-02T20:22:46.852Z,5.75
2023-05-02T20:25:17.468Z,3.67
2023-05-02T20:27:44.842Z,3.58
2023-05-02T20:30:12.646Z,3.42
2023-05-02T20:32:40.100Z,3.92
2023-05-02T20:35:08.867Z,5.10
2023-05-02T20:37:36.668Z,4.13
2023-05-02T20:40:09.975Z,3.85
2023-05-02T20:42:40.189Z,3.53
2023-05-02T20:45:21.814Z,4.10
2023-05-02T20:47:49.291Z,3.30
2023-05-02T20:50:17.348Z,3.00
2023-05-02T20:52:44.610Z,4.22
2023-05-02T20:55:12.084Z,3.85
2023-05-02T20:57:39.413Z,6.20
2023-05-02T21:00:08.808Z,4.15
2023-05-02T21:02:36.626Z,3.65
2023-05-02T21:05:04.006Z,3.35
2023-05-02T21:07:31.453Z,3.60
2023-05-02T21:09:58.926Z,5.10
2023-05-02T21:12:26.294Z,3.15
2023-05-02T21:14:53.701Z,3.72
2023-05-02T21:17:21.842Z,3.75
2023-05-02T21:19:49.312Z,3.63
2023-05-02T21:22:17.513Z,4.63
2023-05-02T21:24:48.138Z,3.92
2023-05-02T21:27:16.132Z,4.22
2023-05-02T21:29:43.478Z,4.18
2023-05-02T21:32:11.172Z,5.20
2023-05-02T21:34:38.805Z,4.82
2023-05-02T21:37:06.973Z,3.97
2023-05-02T21:39:34.330Z,4.32
2023-05-02T21:42:01.654Z,4.15
2023-05-02T21:44:28.999Z,3.85
2023-05-02T21:46:56.609Z,5.55
2023-05-02T21:49:24.044Z,3.88
2023-05-02T21:51:51.451Z,5.03
2023-05-02T21:54:18.849Z,4.43
2023-05-02T21:56:46.355Z,4.15
2023-05-02T21:59:13.943Z,4.80
2023-05-02T22:01:41.305Z,4.82
2023-05-02T22:04:08.620Z,4.28
2023-05-02T22:06:36.006Z,3.80
2023-05-02T22:09:04.882Z,4.20
2023-05-02T22:11:32.452Z,4.22
2023-05-02T22:13:59.764Z,4.35
2023-05-02T22:16:27.079Z,4.05
2023-05-02T22:18:54.566Z,4.22
2023-05-02T22:21:22.391Z,5.20
2023-05-02T22:23:50.423Z,4.60
2023-05-02T22:26:17.858Z,5.20
2023-05-02T22:28:45.161Z,4.55
2023-05-02T22:31:12.717Z,5.72
2023-05-02T22:33:40.264Z,5.00
2023-05-02T22:36:08.688Z,4.40
2023-05-02T22:38:39.631Z,4.10
2023-05-02T22:41:07.162Z,4.00
2023-05-02T22:43:34.515Z,5.07
2023-05-02T22:46:02.561Z,4.05
2023-05-02T22:48:30.505Z,4.22
2023-05-02T22:50:57.878Z,5.18
2023-05-02T22:53:26.126Z,5.15
2023-05-02T22:55:53.925Z,4.78
2023-05-02T22:58:21.316Z,4.13
2023-05-02T23:00:48.652Z,3.75
2023-05-02T23:03:16.205Z,3.58
2023-05-02T23:05:43.598Z,4.57
2023-05-02T23:08:11.090Z,4.22
2023-05-02T23:10:38.470Z,4.50
2023-05-02T23:13:06.385Z,4.80
2023-05-02T23:15:33.788Z,4.78
2023-05-02T23:18:01.275Z,3.72
2023-05-02T23:20:28.659Z,4.28
2023-05-02T23:22:56.265Z,5.00
2023-05-02T23:25:27.001Z,4.22
2023-05-02T23:27:54.887Z,4.75
2023-05-02T23:30:22.830Z,4.68
2023-05-02T23:32:51.570Z,4.60
2023-05-02T23:35:19.027Z,5.00
2023-05-02T23:37:46.535Z,4.63
2023-05-02T23:40:13.905Z,5.10
2023-05-02T23:42:41.817Z,4.78
2023-05-02T23:45:09.815Z,4.72
2023-05-02T23:47:38.089Z,5.32
2023-05-02T23:50:06.274Z,6.13
2023-05-02T23:52:34.332Z,5.65
2023-05-02T23:55:01.589Z,5.05
2023-05-02T23:57:31.818Z,5.40
2023-05-02T23:59:59.328Z,6.90
